Time;durP1;ratioP1;P1;durP2;ratioP2;P2;SDS_P1;SDS_P2;PMS_P1;PMS_P2;Temp;Humidity;BMP_temperature;BMP_pressure;BME280_temperature;BME280_humidity;BME280_pressure;Samples;Min_cycle;Max_cycle;Signal;HPM_P1;HPM_P2
2021/04/06 00:00:34;;;;;;;0.73;0.73;;;0.10;98.50;;;;;;5061171;28;20197;-73
2021/04/06 00:03:02;;;;;;;1.30;0.90;;;0.10;97.20;;;;;;5062693;28;20351;-73
2021/04/06 00:05:29;;;;;;;0.80;0.80;;;0.20;96.50;;;;;;5042482;28;20868;-73
2021/04/06 00:07:58;;;;;;;0.80;0.80;;;0.30;97.00;;;;;;5061168;28;20197;-73
2021/04/06 00:10:29;;;;;;;0.93;0.82;;;0.30;96.70;;;;;;5046504;28;20193;-73
2021/04/06 00:12:56;;;;;;;0.80;0.80;;;0.30;97.50;;;;;;5060422;28;20237;-73
2021/04/06 00:15:25;;;;;;;1.10;1.00;;;0.20;97.00;;;;;;5058105;28;20195;-73
2021/04/06 00:17:54;;;;;;;1.60;0.80;;;0.30;96.80;;;;;;5064701;28;20675;-73
2021/04/06 00:20:22;;;;;;;1.98;0.80;;;0.30;96.60;;;;;;5046829;28;20204;-73
2021/04/06 00:22:49;;;;;;;0.98;0.90;;;0.30;97.00;;;;;;5068336;28;20209;-73
2021/04/06 00:25:19;;;;;;;0.77;0.77;;;0.40;96.50;;;;;;5065695;28;20694;-73
2021/04/06 00:27:50;;;;;;;0.93;0.80;;;0.40;96.30;;;;;;5065666;28;20204;-73
2021/04/06 00:30:22;;;;;;;1.30;1.00;;;0.40;96.20;;;;;;5067755;28;20185;-73
2021/04/06 00:33:13;;;;;;;4.90;0.90;;;0.40;96.20;;;;;;5050186;28;20205;-73
2021/04/06 00:35:40;;;;;;;4.32;0.80;;;0.40;96.00;;;;;;5066739;28;20208;-73
2021/04/06 00:38:10;;;;;;;1.40;0.90;;;0.50;96.10;;;;;;5065125;28;20188;-72
2021/04/06 00:40:41;;;;;;;0.80;0.80;;;0.40;96.20;;;;;;5063809;28;20669;-73
2021/04/06 00:43:07;;;;;;;0.73;0.73;;;0.40;97.00;;;;;;5046959;28;20198;-73
2021/04/06 00:45:38;;;;;;;0.80;0.80;;;0.30;96.80;;;;;;5065810;28;20650;-73
2021/04/06 00:48:21;;;;;;;0.70;0.70;;;0.40;96.30;;;;;;5048394;28;20217;-73
2021/04/06 00:51:10;;;;;;;2.50;0.75;;;0.30;98.50;;;;;;5064873;28;22194;-73
2021/04/06 00:53:55;;;;;;;1.58;0.90;;;0.30;96.20;;;;;;5065523;28;20201;-73
2021/04/06 00:56:29;;;;;;;1.55;0.80;;;0.20;95.80;;;;;;5061503;28;20196;-72
2021/04/06 00:58:57;;;;;;;0.90;0.90;;;0.10;97.00;;;;;;5061481;28;20211;-72
2021/04/06 01:01:33;;;;;;;0.88;0.88;;;0.10;96.50;;;;;;5046804;28;20205;-73
2021/04/06 01:04:01;;;;;;;1.02;0.90;;;0.10;96.40;;;;;;5046983;28;20258;-73
2021/04/06 01:06:26;;;;;;;0.90;0.90;;;0.10;96.10;;;;;;5062176;28;20515;-73
2021/04/06 01:08:53;;;;;;;1.48;0.95;;;0.10;96.30;;;;;;5065431;28;20278;-73
2021/04/06 01:11:22;;;;;;;0.80;0.80;;;0.10;96.50;;;;;;5045848;28;20197;-73
2021/04/06 01:13:48;;;;;;;0.70;0.70;;;0.00;96.30;;;;;;5048419;28;20201;-73
2021/04/06 01:16:14;;;;;;;0.80;0.80;;;-0.10;96.60;;;;;;5063968;28;20248;-73
2021/04/06 01:18:40;;;;;;;1.92;0.93;;;-0.10;97.00;;;;;;5062213;28;20228;-73
2021/04/06 01:21:09;;;;;;;0.90;0.90;;;-0.10;96.40;;;;;;5067865;28;20196;-73
2021/04/06 01:23:36;;;;;;;2.22;0.98;;;-0.10;96.10;;;;;;5061889;28;20205;-73
2021/04/06 01:26:02;;;;;;;2.83;0.90;;;-0.10;96.00;;;;;;5044312;28;20195;-73
2021/04/06 01:28:29;;;;;;;0.85;0.85;;;-0.10;95.50;;;;;;5063456;28;20196;-73
2021/04/06 01:30:57;;;;;;;0.80;0.80;;;0.00;95.80;;;;;;5065280;28;20284;-73
2021/04/06 01:33:31;;;;;;;0.93;0.80;;;-0.10;95.70;;;;;;5049376;28;20216;-73
2021/04/06 01:36:06;;;;;;;1.30;0.80;;;0.00;95.40;;;;;;5065956;28;20247;-73
2021/04/06 01:38:35;;;;;;;1.00;1.00;;;0.10;94.80;;;;;;5064404;28;20197;-73
2021/04/06 01:41:02;;;;;;;0.73;0.73;;;0.00;95.80;;;;;;5064209;28;20196;-73
2021/04/06 01:43:32;;;;;;;0.70;0.70;;;0.00;95.10;;;;;;5063454;28;20251;-73
2021/04/06 01:46:14;;;;;;;0.70;0.70;;;-0.10;95.90;;;;;;5067055;28;20196;-74
2021/04/06 01:48:40;;;;;;;1.40;0.88;;;-0.20;96.00;;;;;;5063239;28;20750;-73
2021/04/06 01:51:06;;;;;;;0.75;0.75;;;-0.30;96.10;;;;;;5064920;28;20287;-73
2021/04/06 01:53:33;;;;;;;1.50;1.00;;;-0.30;97.00;;;;;;5062274;28;20207;-73
2021/04/06 01:56:06;;;;;;;1.42;0.82;;;-0.40;96.90;;;;;;5066348;28;20193;-72
2021/04/06 01:58:33;;;;;;;0.80;0.80;;;-0.50;97.80;;;;;;5066415;28;20239;-72
2021/04/06 02:04:00;;;;;;;0.70;0.70;;;-0.80;99.40;;;;;;5065331;28;20292;-73
2021/04/06 02:06:27;;;;;;;1.98;0.90;;;-0.90;99.90;;;;;;5061952;28;20213;-73
2021/04/06 02:08:54;;;;;;;2.58;0.80;;;-1.10;99.90;;;;;;5065940;28;20193;-73
2021/04/06 02:11:27;;;;;;;1.23;0.80;;;-1.10;99.90;;;;;;5064566;28;20410;-73
2021/04/06 02:14:07;;;;;;;1.38;0.93;;;-1.10;99.90;;;;;;5063781;28;20201;-72
2021/04/06 02:16:48;;;;;;;0.88;0.88;;;-1.10;99.90;;;;;;5048913;28;20673;-72
2021/04/06 02:19:33;;;;;;;0.98;0.90;;;-1.00;99.00;;;;;;5061716;28;20695;-73
2021/04/06 02:22:02;;;;;;;0.82;0.82;;;-1.00;99.90;;;;;;5050691;28;20704;-72
2021/04/06 02:24:50;;;;;;;0.77;0.77;;;-0.80;98.90;;;;;;5062611;28;20546;-73
2021/04/06 02:27:22;;;;;;;1.05;0.90;;;-0.80;98.90;;;;;;5045375;28;20218;-73
2021/04/06 02:29:56;;;;;;;0.82;0.82;;;-0.70;98.50;;;;;;5063744;28;20194;-73
2021/04/06 02:32:32;;;;;;;0.75;0.75;;;-0.70;98.80;;;;;;5043184;28;20670;-72
2021/04/06 02:35:10;;;;;;;0.80;0.80;;;-0.60;97.80;;;;;;5062146;28;20259;-72
2021/04/06 02:37:44;;;;;;;1.52;0.90;;;-0.60;98.30;;;;;;5060799;28;20200;-72
2021/04/06 02:40:18;;;;;;;2.42;0.88;;;-0.50;98.00;;;;;;5060007;28;20319;-72
2021/04/06 02:42:47;;;;;;;0.80;0.80;;;-0.50;97.90;;;;;;5060560;28;20196;-72
2021/04/06 02:45:14;;;;;;;2.63;1.00;;;-0.50;97.90;;;;;;5060018;28;20303;-73
2021/04/06 02:47:53;;;;;;;2.97;0.90;;;-0.40;98.00;;;;;;5062060;28;20193;-73
2021/04/06 02:50:24;;;;;;;1.08;0.80;;;-0.40;97.10;;;;;;5057082;28;20197;-73
2021/04/06 02:52:50;;;;;;;2.05;0.85;;;-0.30;97.20;;;;;;5062913;28;20208;-73
2021/04/06 02:55:17;;;;;;;0.80;0.80;;;-0.40;97.50;;;;;;5061316;28;20197;-73
2021/04/06 02:57:47;;;;;;;2.22;0.75;;;-0.40;97.50;;;;;;5062220;28;21074;-73
2021/04/06 03:00:25;;;;;;;1.02;0.80;;;-0.40;98.00;;;;;;5059526;28;20193;-73
2021/04/06 03:02:50;;;;;;;1.67;0.85;;;-0.40;98.00;;;;;;5059500;28;20200;-73
2021/04/06 03:05:34;;;;;;;1.10;0.85;;;-0.40;97.30;;;;;;5058865;28;20228;-73
2021/04/06 03:08:03;;;;;;;0.75;0.75;;;-0.30;97.40;;;;;;5064345;28;20205;-73
2021/04/06 03:10:31;;;;;;;1.77;0.68;;;-0.30;98.00;;;;;;5061582;28;20207;-72
2021/04/06 03:13:03;;;;;;;0.80;0.80;;;-0.20;97.50;;;;;;5061820;28;20203;-72
2021/04/06 03:15:29;;;;;;;1.10;0.88;;;-0.20;97.30;;;;;;5059428;28;20685;-72
2021/04/06 03:17:56;;;;;;;2.35;0.80;;;-0.20;97.70;;;;;;5043953;28;20315;-73
2021/04/06 03:20:26;;;;;;;1.27;0.77;;;-0.20;97.10;;;;;;5059071;28;20212;-73
2021/04/06 03:22:54;;;;;;;0.82;0.80;;;-0.10;96.70;;;;;;5058242;28;20200;-73
2021/04/06 03:25:21;;;;;;;2.72;0.85;;;0.00;96.70;;;;;;5060328;28;20228;-73
2021/04/06 03:27:49;;;;;;;2.22;0.70;;;-0.10;96.90;;;;;;5042631;28;20258;-73
2021/04/06 03:30:31;;;;;;;2.00;0.98;;;0.00;96.90;;;;;;5058750;28;20335;-73
2021/04/06 03:33:05;;;;;;;0.80;0.80;;;-0.10;96.90;;;;;;5061609;28;20327;-73
2021/04/06 03:35:33;;;;;;;0.88;0.88;;;0.00;97.10;;;;;;5061185;28;20205;-73
2021/04/06 03:38:00;;;;;;;0.80;0.80;;;-0.10;96.80;;;;;;5062832;28;20257;-73
2021/04/06 03:40:31;;;;;;;1.30;0.85;;;-0.10;97.00;;;;;;5041737;28;20219;-73
2021/04/06 03:43:23;;;;;;;0.80;0.77;;;-0.10;96.80;;;;;;5062201;28;20801;-73
2021/04/06 03:46:00;;;;;;;1.17;0.80;;;-0.10;97.20;;;;;;5057146;28;20838;-73
2021/04/06 03:48:27;;;;;;;0.88;0.75;;;-0.20;97.30;;;;;;5041673;28;20227;-73
2021/04/06 03:50:53;;;;;;;0.75;0.70;;;-0.20;97.40;;;;;;5062402;28;20215;-73
2021/04/06 03:53:21;;;;;;;2.78;1.00;;;-0.20;97.10;;;;;;5048597;28;20278;-73
2021/04/06 03:56:12;;;;;;;5.57;0.90;;;-0.20;97.10;;;;;;5065103;28;20200;-73
2021/04/06 03:58:56;;;;;;;0.80;0.80;;;-0.10;97.20;;;;;;5065583;28;20326;-73
2021/04/06 04:01:21;;;;;;;1.42;1.10;;;-0.20;97.40;;;;;;5062717;28;20204;-73
2021/04/06 04:03:51;;;;;;;0.95;0.93;;;-0.10;97.20;;;;;;5066312;28;20241;-73
2021/04/06 04:06:28;;;;;;;0.93;0.90;;;-0.10;97.50;;;;;;5065835;28;20611;-73
2021/04/06 04:08:55;;;;;;;2.03;0.88;;;-0.10;97.90;;;;;;5047974;28;20675;-73
2021/04/06 04:11:22;;;;;;;0.70;0.70;;;0.00;97.60;;;;;;5066770;28;20209;-73
2021/04/06 04:13:48;;;;;;;3.88;1.00;;;0.00;97.20;;;;;;5061075;28;20209;-73
2021/04/06 04:16:15;;;;;;;1.00;0.90;;;0.00;97.20;;;;;;5067110;28;20295;-73
2021/04/06 04:18:41;;;;;;;0.85;0.85;;;0.10;97.30;;;;;;5045532;28;20213;-73
2021/04/06 04:21:10;;;;;;;4.75;0.80;;;0.10;96.90;;;;;;5069593;28;20201;-73
2021/04/06 04:23:36;;;;;;;1.00;0.80;;;0.00;97.50;;;;;;5067002;28;20254;-73
2021/04/06 04:26:02;;;;;;;3.10;0.85;;;0.10;97.00;;;;;;5066808;28;20197;-73
2021/04/06 04:28:27;;;;;;;0.90;0.90;;;0.10;96.80;;;;;;5070237;28;20196;-73
2021/04/06 04:30:54;;;;;;;0.70;0.70;;;0.10;97.50;;;;;;5043671;28;20566;-73
2021/04/06 04:33:20;;;;;;;0.80;0.77;;;0.10;97.70;;;;;;5051172;28;20270;-73
2021/04/06 04:35:46;;;;;;;0.70;0.70;;;0.10;97.40;;;;;;5057926;28;20204;-74
2021/04/06 04:38:12;;;;;;;0.70;0.70;;;0.10;97.30;;;;;;5048469;28;20574;-72
2021/04/06 04:40:43;;;;;;;0.70;0.70;;;0.10;97.60;;;;;;5064212;28;20205;-73
2021/04/06 04:43:10;;;;;;;0.70;0.70;;;0.10;97.60;;;;;;5067982;28;20208;-72
2021/04/06 04:45:36;;;;;;;1.13;0.80;;;0.10;96.80;;;;;;5067158;28;20753;-73
2021/04/06 04:48:02;;;;;;;1.73;0.80;;;0.20;97.40;;;;;;5069098;28;20549;-73
2021/04/06 04:50:28;;;;;;;0.70;0.70;;;0.20;97.10;;;;;;5066395;28;20269;-73
2021/04/06 04:52:54;;;;;;;0.98;0.88;;;0.20;97.10;;;;;;5061637;28;20495;-73
2021/04/06 04:55:20;;;;;;;1.55;0.95;;;0.20;97.10;;;;;;5064367;28;20317;-73
2021/04/06 04:57:47;;;;;;;1.20;1.00;;;0.20;97.70;;;;;;5064673;28;20300;-73
2021/04/06 05:00:14;;;;;;;1.42;0.80;;;0.10;97.70;;;;;;5065221;28;20205;-72
2021/04/06 05:02:40;;;;;;;0.90;0.90;;;0.10;97.50;;;;;;5069691;28;20196;-74
2021/04/06 05:05:08;;;;;;;1.30;0.80;;;0.10;97.60;;;;;;5065923;28;20239;-73
2021/04/06 05:07:36;;;;;;;0.80;0.80;;;0.10;97.80;;;;;;5061131;28;20729;-73
2021/04/06 05:10:02;;;;;;;1.55;0.80;;;0.10;97.90;;;;;;5066360;28;20185;-72
2021/04/06 05:12:27;;;;;;;0.80;0.80;;;0.10;98.00;;;;;;5061406;28;20731;-72
2021/04/06 05:14:55;;;;;;;0.95;0.88;;;0.10;98.40;;;;;;5060268;28;20379;-72
2021/04/06 05:17:21;;;;;;;0.80;0.80;;;0.10;99.90;;;;;;5061353;28;20205;-72
2021/04/06 05:19:46;;;;;;;1.40;0.77;;;0.10;98.10;;;;;;5049043;28;20209;-73
2021/04/06 05:22:12;;;;;;;1.45;0.80;;;0.10;98.30;;;;;;5072392;28;20184;-73
2021/04/06 05:24:38;;;;;;;0.60;0.60;;;0.10;98.40;;;;;;5065927;28;20258;-73
2021/04/06 05:27:03;;;;;;;0.90;0.80;;;0.10;99.80;;;;;;5065547;28;20208;-73
2021/04/06 05:29:29;;;;;;;0.70;0.70;;;0.10;99.50;;;;;;5062667;28;20199;-73
2021/04/06 05:31:55;;;;;;;0.82;0.80;;;0.20;98.80;;;;;;5066142;28;20220;-72
2021/04/06 05:34:21;;;;;;;1.60;0.93;;;0.20;98.90;;;;;;5065270;28;20276;-73
2021/04/06 05:36:47;;;;;;;0.70;0.70;;;0.30;98.20;;;;;;5060204;28;21321;-73
2021/04/06 05:39:13;;;;;;;0.82;0.80;;;0.20;98.60;;;;;;5064836;28;20331;-73
2021/04/06 05:41:43;;;;;;;0.88;0.80;;;0.30;99.00;;;;;;5064767;28;20746;-73
2021/04/06 05:44:09;;;;;;;1.77;1.00;;;0.40;97.50;;;;;;5048372;28;20582;-73
2021/04/06 05:46:37;;;;;;;2.65;0.90;;;0.40;98.40;;;;;;5044520;28;20205;-73
2021/04/06 05:49:07;;;;;;;0.68;0.68;;;0.40;98.00;;;;;;5068083;28;20204;-73
2021/04/06 05:51:36;;;;;;;2.25;0.90;;;0.50;98.80;;;;;;5046946;28;20273;-73
2021/04/06 05:54:02;;;;;;;0.80;0.80;;;0.50;97.80;;;;;;5068473;28;20720;-72
2021/04/06 05:56:29;;;;;;;0.90;0.90;;;0.60;97.30;;;;;;5062887;28;20205;-73
2021/04/06 05:58:58;;;;;;;0.90;0.90;;;0.60;97.80;;;;;;5066393;28;20200;-73
2021/04/06 06:01:28;;;;;;;0.90;0.90;;;0.70;97.50;;;;;;5065429;28;20694;-73
2021/04/06 06:03:54;;;;;;;0.90;0.90;;;0.70;96.90;;;;;;5063324;28;20568;-72
2021/04/06 06:06:21;;;;;;;0.95;0.90;;;0.80;96.60;;;;;;5046841;28;20217;-73
2021/04/06 06:08:51;;;;;;;0.80;0.80;;;0.80;97.40;;;;;;5066587;28;20201;-73
2021/04/06 06:11:18;;;;;;;1.00;0.90;;;0.90;96.20;;;;;;5063524;28;20197;-73
2021/04/06 06:13:43;;;;;;;9.73;1.05;;;0.90;96.90;;;;;;5049514;28;20205;-72
2021/04/06 06:16:23;;;;;;;0.75;0.75;;;1.00;95.90;;;;;;5064431;28;20204;-73
2021/04/06 06:18:55;;;;;;;1.02;0.80;;;1.10;96.20;;;;;;5055648;28;20757;-72
2021/04/06 06:21:42;;;;;;;0.80;0.80;;;1.10;95.30;;;;;;5044147;28;20208;-72
2021/04/06 06:24:09;;;;;;;0.70;0.70;;;1.20;95.80;;;;;;5066686;28;20311;-72
2021/04/06 06:26:35;;;;;;;2.03;0.90;;;1.30;95.80;;;;;;5061641;28;20193;-72
2021/04/06 06:29:15;;;;;;;1.65;1.00;;;1.40;95.10;;;;;;5065691;28;20197;-72
2021/04/06 06:31:46;;;;;;;1.60;0.93;;;1.40;95.20;;;;;;5067789;28;20224;-72
2021/04/06 06:34:36;;;;;;;0.65;0.65;;;1.50;94.70;;;;;;5061831;28;20196;-72
2021/04/06 06:37:14;;;;;;;1.10;0.82;;;1.60;94.50;;;;;;5063425;28;20197;-72
2021/04/06 06:39:47;;;;;;;0.90;0.80;;;1.70;94.40;;;;;;5069138;28;20197;-72
2021/04/06 06:42:14;;;;;;;0.80;0.80;;;1.80;94.40;;;;;;5067973;28;20208;-72
2021/04/06 06:44:40;;;;;;;1.45;0.80;;;1.90;94.80;;;;;;5064080;28;20208;-72
2021/04/06 06:47:10;;;;;;;1.10;0.88;;;2.00;94.10;;;;;;5067958;28;20195;-72
2021/04/06 06:49:38;;;;;;;2.10;0.93;;;2.10;93.40;;;;;;5065743;28;20279;-72
2021/04/06 06:52:07;;;;;;;2.50;0.82;;;2.20;93.20;;;;;;5049329;28;20284;-72
2021/04/06 06:54:38;;;;;;;0.90;0.90;;;2.30;93.60;;;;;;5071531;28;20197;-73
2021/04/06 06:57:11;;;;;;;0.88;0.80;;;2.40;92.60;;;;;;5065991;28;20655;-73
2021/04/06 06:59:39;;;;;;;0.70;0.70;;;2.60;92.60;;;;;;5063599;28;20196;-73
2021/04/06 07:02:41;;;;;;;2.97;1.00;;;2.60;91.50;;;;;;5067962;28;20200;-72
2021/04/06 07:05:17;;;;;;;0.80;0.80;;;2.60;92.30;;;;;;5008099;28;20225;-72
2021/04/06 07:08:04;;;;;;;1.10;0.82;;;2.60;91.10;;;;;;5005280;28;20206;-72
2021/04/06 07:10:42;;;;;;;0.70;0.70;;;2.80;91.30;;;;;;5003262;28;20235;-72
2021/04/06 07:13:11;;;;;;;0.95;0.88;;;3.00;91.60;;;;;;5012082;28;21041;-73
2021/04/06 07:15:39;;;;;;;0.80;0.80;;;3.00;91.20;;;;;;4988900;28;20208;-73
2021/04/06 07:18:15;;;;;;;2.58;1.70;;;3.10;90.20;;;;;;5005714;28;20622;-73
2021/04/06 07:20:45;;;;;;;2.45;1.60;;;3.10;90.40;;;;;;5002475;28;20637;-73
2021/04/06 07:23:36;;;;;;;0.98;0.93;;;3.20;90.60;;;;;;4997390;28;20673;-73
2021/04/06 07:26:11;;;;;;;0.90;0.90;;;3.40;90.40;;;;;;5007009;28;20219;-73
2021/04/06 07:28:38;;;;;;;1.48;1.30;;;3.60;89.00;;;;;;5012285;28;20568;-73
2021/04/06 07:31:04;;;;;;;1.45;1.10;;;3.60;89.50;;;;;;5015088;28;20201;-73
2021/04/06 07:33:31;;;;;;;1.35;1.25;;;3.60;90.00;;;;;;5008702;28;20207;-73
2021/04/06 07:36:13;;;;;;;1.05;0.80;;;3.60;88.60;;;;;;5011666;28;20206;-73
2021/04/06 07:39:06;;;;;;;0.98;0.80;;;3.70;86.10;;;;;;5020522;28;20401;-73
2021/04/06 07:41:35;;;;;;;2.00;1.00;;;3.70;89.80;;;;;;5038487;28;20287;-73
2021/04/06 07:44:03;;;;;;;1.27;1.17;;;4.00;88.40;;;;;;5040996;28;20730;-73
2021/04/06 07:46:34;;;;;;;2.47;1.13;;;4.40;86.50;;;;;;5040820;28;20189;-73
2021/04/06 07:49:12;;;;;;;2.30;0.75;;;4.60;86.20;;;;;;5048002;28;20233;-73
2021/04/06 07:51:44;;;;;;;0.80;0.80;;;4.50;83.10;;;;;;5039562;28;20200;-73
2021/04/06 07:54:15;;;;;;;1.92;1.05;;;4.40;83.80;;;;;;5045593;28;20259;-74
2021/04/06 07:56:44;;;;;;;1.23;0.90;;;4.30;85.20;;;;;;5045261;28;20190;-73
2021/04/06 07:59:30;;;;;;;2.35;1.67;;;4.20;83.00;;;;;;5041260;28;20578;-73
2021/04/06 08:01:58;;;;;;;0.82;0.82;;;4.30;83.40;;;;;;5045655;28;20731;-73
2021/04/06 08:04:25;;;;;;;1.65;0.93;;;4.50;83.90;;;;;;5043112;28;20235;-73
2021/04/06 08:06:56;;;;;;;5.40;2.55;;;4.60;80.40;;;;;;5052260;28;20197;-73
2021/04/06 08:09:43;;;;;;;1.25;1.02;;;4.70;80.40;;;;;;5059470;28;20189;-72
2021/04/06 08:12:25;;;;;;;0.90;0.90;;;4.70;81.40;;;;;;5062899;28;20224;-73
2021/04/06 08:15:00;;;;;;;4.50;2.35;;;4.60;82.10;;;;;;5067987;28;20697;-73
2021/04/06 08:17:26;;;;;;;1.20;0.90;;;4.70;78.80;;;;;;5056704;28;20228;-73
2021/04/06 08:19:55;;;;;;;1.13;1.02;;;5.00;80.50;;;;;;5064350;28;20204;-73
2021/04/06 08:22:26;;;;;;;2.05;1.40;;;5.00;80.60;;;;;;5066813;28;20210;-73
2021/04/06 08:25:12;;;;;;;1.55;1.20;;;5.00;80.70;;;;;;5062321;28;20230;-73
2021/04/06 08:27:38;;;;;;;4.40;1.30;;;5.00;78.40;;;;;;5049992;28;21098;-73
2021/04/06 08:30:18;;;;;;;4.63;0.82;;;5.00;80.20;;;;;;5058348;28;20276;-73
2021/04/06 08:32:59;;;;;;;1.63;0.88;;;5.10;77.60;;;;;;5050529;28;20228;-72
2021/04/06 08:35:52;;;;;;;1.20;0.70;;;5.50;78.20;;;;;;5064201;28;20220;-72
2021/04/06 08:38:24;;;;;;;1.20;1.00;;;5.70;76.60;;;;;;5057718;28;20763;-73
2021/04/06 08:40:57;;;;;;;1.92;0.80;;;6.00;77.60;;;;;;5061715;28;20193;-72
2021/04/06 08:43:24;;;;;;;3.60;0.88;;;6.40;75.00;;;;;;5059532;28;20232;-71
2021/04/06 08:46:01;;;;;;;0.80;0.80;;;6.60;74.20;;;;;;5061411;28;20280;-72
2021/04/06 08:48:51;;;;;;;6.20;1.13;;;6.60;74.20;;;;;;5059913;28;20206;-73
2021/04/06 08:51:33;;;;;;;3.40;1.52;;;6.90;74.00;;;;;;5062139;28;20621;-73
2021/04/06 08:54:30;;;;;;;1.55;0.90;;;6.90;71.90;;;;;;5064114;28;20200;-71
2021/04/06 08:56:59;;;;;;;2.40;1.45;;;6.90;72.40;;;;;;5040742;28;20209;-70
2021/04/06 08:59:35;;;;;;;1.02;0.80;;;7.10;72.80;;;;;;5061411;28;20349;-72
2021/04/06 09:02:14;;;;;;;1.58;0.77;;;6.60;71.50;;;;;;5062120;28;20197;-70
2021/04/06 09:04:50;;;;;;;0.70;0.70;;;6.80;70.60;;;;;;5058090;28;20221;-69
2021/04/06 09:07:30;;;;;;;1.63;0.80;;;6.70;71.30;;;;;;5060471;28;20733;-70
2021/04/06 09:10:11;;;;;;;2.17;1.10;;;6.80;70.50;;;;;;5059757;28;20201;-71
2021/04/06 09:12:43;;;;;;;2.20;1.20;;;6.80;70.90;;;;;;5064852;28;20267;-71
2021/04/06 09:15:13;;;;;;;2.38;1.50;;;6.80;70.50;;;;;;5057318;28;20201;-72
2021/04/06 09:17:40;;;;;;;6.47;2.30;;;7.00;70.90;;;;;;5047240;28;20196;-72
2021/04/06 09:20:08;;;;;;;1.20;1.10;;;7.40;70.80;;;;;;5064284;28;20197;-72
2021/04/06 09:22:34;;;;;;;2.65;1.10;;;7.50;69.30;;;;;;5065648;28;20276;-72
2021/04/06 09:25:32;;;;;;;1.33;0.98;;;7.50;70.50;;;;;;5060206;28;20223;-71
2021/04/06 09:28:01;;;;;;;1.17;0.88;;;7.50;65.70;;;;;;5064004;28;20205;-71
2021/04/06 09:30:32;;;;;;;1.25;0.90;;;7.70;69.60;;;;;;5044409;28;20713;-71
2021/04/06 09:33:03;;;;;;;1.33;0.90;;;7.80;68.60;;;;;;5061891;28;20232;-73
2021/04/06 09:35:29;;;;;;;0.82;0.80;;;7.90;67.50;;;;;;5067088;28;20207;-71
2021/04/06 09:37:57;;;;;;;0.70;0.70;;;8.20;67.50;;;;;;5056867;28;20194;-71
2021/04/06 09:40:38;;;;;;;0.90;0.80;;;8.20;65.00;;;;;;5060988;28;21279;-71
2021/04/06 09:43:04;;;;;;;0.80;0.80;;;8.20;66.90;;;;;;5066006;28;20276;-72
2021/04/06 09:45:31;;;;;;;0.80;0.80;;;8.80;65.80;;;;;;5061152;28;20284;-71
2021/04/06 09:47:57;;;;;;;1.30;1.08;;;9.10;64.10;;;;;;5066091;28;20192;-71
2021/04/06 09:50:24;;;;;;;1.67;0.70;;;9.10;64.10;;;;;;5057327;28;20295;-72
2021/04/06 09:52:50;;;;;;;0.80;0.80;;;9.30;63.00;;;;;;5061584;28;20224;-73
2021/04/06 09:55:16;;;;;;;7.50;4.13;;;9.10;59.20;;;;;;5063648;28;20618;-73
2021/04/06 09:57:46;;;;;;;2.10;0.80;;;9.30;62.20;;;;;;5061816;28;20587;-73
2021/04/06 10:00:14;;;;;;;1.23;1.00;;;9.40;59.80;;;;;;5057139;28;20189;-72
2021/04/06 10:02:42;;;;;;;1.50;0.80;;;9.60;61.10;;;;;;5060332;28;20272;-72
2021/04/06 10:05:19;;;;;;;1.15;0.88;;;9.80;62.50;;;;;;5045060;28;20218;-71
2021/04/06 10:07:47;;;;;;;1.00;0.90;;;9.80;59.30;;;;;;5056204;28;20204;-72
2021/04/06 10:10:21;;;;;;;1.25;1.15;;;9.50;59.80;;;;;;5055790;28;20284;-72
2021/04/06 10:12:49;;;;;;;12.35;7.88;;;9.20;59.20;;;;;;5067176;28;20224;-72
2021/04/06 10:15:23;;;;;;;4.00;1.95;;;9.20;62.20;;;;;;5057465;28;20192;-73
2021/04/06 10:17:50;;;;;;;0.70;0.70;;;9.20;59.40;;;;;;5054037;28;20209;-72
2021/04/06 10:20:25;;;;;;;3.20;1.38;;;9.10;59.60;;;;;;5065421;28;20208;-72
2021/04/06 10:22:57;;;;;;;1.77;1.20;;;8.90;59.70;;;;;;5057588;28;20227;-72
2021/04/06 10:25:26;;;;;;;0.95;0.82;;;8.80;60.00;;;;;;5054408;28;20203;-72
2021/04/06 10:28:00;;;;;;;1.63;1.23;;;8.80;61.50;;;;;;5060094;28;20204;-73
2021/04/06 10:30:39;;;;;;;0.80;0.80;;;8.90;62.60;;;;;;5039881;28;20702;-73
2021/04/06 10:33:14;;;;;;;0.70;0.70;;;9.00;60.20;;;;;;5045886;28;20275;-72
2021/04/06 10:35:51;;;;;;;1.60;0.88;;;8.60;59.30;;;;;;5053728;28;20567;-73
2021/04/06 10:38:24;;;;;;;0.80;0.80;;;8.30;61.60;;;;;;5057783;28;20204;-72
2021/04/06 10:41:04;;;;;;;1.15;0.70;;;8.00;61.10;;;;;;5059799;28;20197;-73
2021/04/06 10:43:31;;;;;;;1.75;0.80;;;7.80;63.30;;;;;;5060422;28;20209;-72
2021/04/06 10:46:10;;;;;;;0.82;0.82;;;7.70;62.50;;;;;;5057430;28;20205;-73
2021/04/06 10:49:01;;;;;;;1.08;0.90;;;7.50;62.60;;;;;;5059637;28;20676;-72
2021/04/06 10:51:27;;;;;;;1.00;0.88;;;7.30;63.20;;;;;;5028065;28;20681;-72
2021/04/06 10:54:11;;;;;;;1.35;0.80;;;7.30;64.70;;;;;;5040185;28;20986;-73
2021/04/06 10:56:44;;;;;;;2.55;0.82;;;7.40;63.60;;;;;;5058969;28;20200;-72
2021/04/06 10:59:12;;;;;;;1.38;0.90;;;7.50;64.10;;;;;;5057445;28;20300;-72
2021/04/06 11:01:39;;;;;;;4.07;0.80;;;7.60;65.40;;;;;;5061073;28;20208;-72
2021/04/06 11:04:13;;;;;;;0.80;0.80;;;7.60;66.30;;;;;;5062439;28;20333;-72
2021/04/06 11:06:41;;;;;;;2.60;0.70;;;7.60;68.20;;;;;;5059589;28;20322;-72
2021/04/06 11:09:14;;;;;;;0.98;0.70;;;7.40;69.90;;;;;;5060092;28;20204;-72
2021/04/06 11:11:41;;;;;;;3.13;0.90;;;7.30;68.40;;;;;;5058064;28;20253;-72
2021/04/06 11:14:10;;;;;;;0.60;0.60;;;7.30;71.40;;;;;;5055419;28;20200;-72
2021/04/06 11:16:38;;;;;;;1.20;0.70;;;7.20;70.50;;;;;;5058181;28;20204;-72
2021/04/06 11:19:23;;;;;;;0.80;0.80;;;7.10;68.10;;;;;;5058994;28;20197;-72
2021/04/06 11:21:52;;;;;;;1.85;0.80;;;7.00;67.30;;;;;;5058095;28;20209;-72
2021/04/06 11:24:19;;;;;;;0.80;0.80;;;6.80;68.50;;;;;;5057414;28;20201;-72
2021/04/06 11:26:46;;;;;;;1.95;0.80;;;6.70;69.80;;;;;;5056486;28;20193;-72
2021/04/06 11:29:14;;;;;;;1.15;0.70;;;6.60;68.10;;;;;;5057512;28;20200;-73
2021/04/06 11:31:41;;;;;;;0.80;0.80;;;6.60;69.00;;;;;;5043784;28;20224;-72
2021/04/06 11:34:08;;;;;;;0.95;0.80;;;6.70;67.50;;;;;;5065011;28;20672;-72
2021/04/06 11:36:35;;;;;;;0.70;0.70;;;6.90;68.80;;;;;;5059031;28;20236;-72
2021/04/06 11:39:06;;;;;;;1.95;0.90;;;7.00;65.70;;;;;;5055183;28;20192;-72
2021/04/06 11:41:32;;;;;;;0.80;0.80;;;7.10;66.30;;;;;;5055470;28;20204;-73
2021/04/06 11:43:58;;;;;;;2.08;0.90;;;7.30;66.90;;;;;;5054138;28;20212;-73
2021/04/06 11:46:23;;;;;;;1.02;0.70;;;7.40;63.30;;;;;;5064199;28;21013;-71
2021/04/06 11:48:49;;;;;;;0.70;0.70;;;7.30;64.30;;;;;;5043793;28;20216;-72
2021/04/06 11:51:16;;;;;;;1.15;0.80;;;7.30;64.10;;;;;;5042067;28;20723;-72
2021/04/06 11:53:42;;;;;;;1.00;0.80;;;7.30;64.30;;;;;;5068148;28;20200;-73
2021/04/06 11:56:08;;;;;;;0.88;0.80;;;7.40;63.80;;;;;;5047468;28;20193;-72
2021/04/06 11:58:34;;;;;;;1.00;0.80;;;7.50;63.30;;;;;;5053674;28;20554;-72
2021/04/06 12:01:00;;;;;;;3.08;0.80;;;7.50;64.10;;;;;;5040709;28;20197;-73
2021/04/06 12:03:27;;;;;;;1.23;0.88;;;7.60;63.20;;;;;;5050552;28;21126;-74
2021/04/06 12:05:53;;;;;;;0.80;0.80;;;7.60;63.70;;;;;;5060217;28;20318;-73
2021/04/06 12:08:19;;;;;;;0.70;0.70;;;7.50;61.70;;;;;;5052315;28;20291;-72
2021/04/06 12:10:47;;;;;;;1.77;1.20;;;7.60;61.20;;;;;;5061190;28;20201;-73
2021/04/06 12:13:13;;;;;;;0.70;0.70;;;7.90;60.80;;;;;;5066271;28;20325;-72
2021/04/06 12:15:39;;;;;;;0.80;0.80;;;8.20;59.90;;;;;;5057852;28;21695;-73
2021/04/06 12:18:05;;;;;;;1.85;0.80;;;8.30;60.40;;;;;;5052978;28;20271;-72
2021/04/06 12:20:32;;;;;;;0.82;0.70;;;8.30;59.40;;;;;;5066143;28;20547;-72
2021/04/06 12:22:57;;;;;;;0.80;0.80;;;8.30;58.30;;;;;;5059305;28;20197;-73
2021/04/06 12:25:23;;;;;;;1.02;0.80;;;8.40;57.80;;;;;;5057505;28;20228;-72
2021/04/06 12:27:49;;;;;;;0.70;0.70;;;8.50;56.10;;;;;;5069072;28;20196;-72
2021/04/06 12:30:15;;;;;;;0.70;0.70;;;8.90;56.30;;;;;;5046011;28;20201;-72
2021/04/06 12:32:41;;;;;;;8.18;0.85;;;8.90;57.30;;;;;;5064014;28;20200;-73
2021/04/06 12:35:09;;;;;;;3.80;0.90;;;9.20;57.30;;;;;;5065086;28;20283;-73
2021/04/06 12:37:34;;;;;;;1.08;0.75;;;9.60;59.10;;;;;;5062704;28;20194;-73
2021/04/06 12:40:00;;;;;;;0.70;0.70;;;9.80;55.20;;;;;;5059057;28;20670;-73
2021/04/06 12:42:26;;;;;;;0.75;0.65;;;10.10;55.50;;;;;;5056587;28;20196;-73
2021/04/06 12:44:53;;;;;;;0.63;0.63;;;10.00;56.10;;;;;;5061692;28;20215;-73
2021/04/06 12:47:18;;;;;;;0.70;0.70;;;10.30;55.50;;;;;;5063662;28;20204;-73
2021/04/06 12:49:45;;;;;;;0.88;0.85;;;10.60;54.90;;;;;;5066244;28;20203;-73
2021/04/06 12:52:11;;;;;;;0.73;0.73;;;10.70;54.50;;;;;;5067357;28;20258;-73
2021/04/06 12:54:37;;;;;;;1.40;0.70;;;10.90;55.10;;;;;;5067710;28;20209;-73
2021/04/06 12:57:03;;;;;;;0.90;0.70;;;11.20;53.20;;;;;;5065194;28;20205;-72
2021/04/06 12:59:29;;;;;;;0.70;0.70;;;11.20;54.70;;;;;;5060924;28;20224;-72
2021/04/06 13:01:55;;;;;;;1.27;0.70;;;11.30;52.10;;;;;;5062406;28;20312;-73
2021/04/06 13:04:21;;;;;;;0.70;0.70;;;10.80;53.00;;;;;;5037621;28;20707;-73
2021/04/06 13:06:46;;;;;;;1.13;0.70;;;10.80;54.80;;;;;;5044452;28;20778;-73
2021/04/06 13:09:12;;;;;;;0.70;0.70;;;11.00;54.00;;;;;;5042396;28;20189;-72
2021/04/06 13:11:38;;;;;;;0.95;0.70;;;10.50;53.40;;;;;;5046150;28;20682;-72
2021/04/06 13:14:04;;;;;;;0.80;0.70;;;10.40;54.40;;;;;;5045408;28;20275;-72
2021/04/06 13:16:31;;;;;;;0.65;0.65;;;10.40;54.10;;;;;;5046039;28;20197;-73